Time;durP1;ratioP1;P1;durP2;ratioP2;P2;SDS_P1;SDS_P2;PMS_P1;PMS_P2;Temp;Humidity;BMP_temperature;BMP_pressure;BME280_temperature;BME280_humidity;BME280_pressure;Samples;Min_cycle;Max_cycle;Signal;HPM_P1;HPM_P2
2023/07/31 00:01:55;;;;;;;6.82;2.17;;;17.20;99.90;;;;;;6383931;27;20058;-83
2023/07/31 00:04:57;;;;;;;12.23;7.25;;;17.10;99.90;;;;;;6383108;27;20042;-84
2023/07/31 00:07:59;;;;;;;15.45;5.50;;;17.00;99.90;;;;;;6384251;27;20039;-82
2023/07/31 00:11:00;;;;;;;6.80;3.03;;;16.90;99.90;;;;;;6382965;27;20390;-83
2023/07/31 00:14:03;;;;;;;4.20;2.08;;;16.80;99.90;;;;;;6385699;27;20485;-83
2023/07/31 00:17:06;;;;;;;9.40;2.30;;;16.80;99.90;;;;;;6384628;27;20043;-83
2023/07/31 00:20:08;;;;;;;2.60;1.92;;;16.70;99.90;;;;;;6384749;27;20039;-83
2023/07/31 00:23:10;;;;;;;6.05;2.15;;;16.80;99.90;;;;;;6384100;27;20043;-82
2023/07/31 00:26:12;;;;;;;4.38;2.10;;;16.80;99.90;;;;;;6379965;27;20055;-83
2023/07/31 00:29:15;;;;;;;3.22;2.10;;;16.70;99.90;;;;;;6379175;27;20054;-82
2023/07/31 00:32:16;;;;;;;5.07;2.33;;;16.70;99.90;;;;;;6380804;27;20051;-83
2023/07/31 00:35:18;;;;;;;4.28;1.70;;;16.70;99.90;;;;;;6380155;27;20047;-83
2023/07/31 00:38:20;;;;;;;5.03;2.65;;;16.70;99.90;;;;;;6380043;27;20047;-83
2023/07/31 00:41:21;;;;;;;4.50;2.67;;;16.70;99.90;;;;;;6380026;27;20047;-83
2023/07/31 00:44:25;;;;;;;7.13;2.08;;;16.70;99.90;;;;;;6378756;27;20058;-83
2023/07/31 00:47:27;;;;;;;7.40;2.67;;;16.60;99.90;;;;;;6377958;27;20058;-83
2023/07/31 00:50:29;;;;;;;2.95;2.13;;;16.60;99.90;;;;;;6378014;27;20058;-83
2023/07/31 00:53:31;;;;;;;5.05;3.03;;;16.60;99.90;;;;;;6379088;27;20363;-82
2023/07/31 00:56:34;;;;;;;6.07;2.00;;;16.60;99.90;;;;;;6380550;27;20050;-82
2023/07/31 00:59:37;;;;;;;4.72;3.25;;;16.50;99.90;;;;;;6379724;27;20154;-83
2023/07/31 01:02:39;;;;;;;4.70;2.00;;;16.50;99.90;;;;;;6367076;27;20050;-82
2023/07/31 01:05:47;;;;;;;3.42;2.00;;;16.50;99.90;;;;;;6379843;27;20043;-83
2023/07/31 01:09:00;;;;;;;4.28;2.75;;;16.50;99.90;;;;;;6379137;27;20046;-83
2023/07/31 01:12:04;;;;;;;5.22;2.25;;;16.50;99.90;;;;;;6379862;27;20043;-83
2023/07/31 01:15:10;;;;;;;3.25;2.75;;;16.50;99.90;;;;;;6379737;27;20050;-83
2023/07/31 01:18:12;;;;;;;5.25;2.90;;;16.50;99.90;;;;;;6381579;27;20504;-82
2023/07/31 01:21:30;;;;;;;11.82;2.95;;;16.50;99.90;;;;;;6380148;27;20042;-83
2023/07/31 01:24:40;;;;;;;4.60;2.38;;;16.40;99.90;;;;;;6383962;27;20043;-83
2023/07/31 01:27:49;;;;;;;10.10;2.10;;;16.40;99.90;;;;;;6383003;27;20066;-83
2023/07/31 01:30:51;;;;;;;2.63;1.92;;;16.40;99.90;;;;;;6383105;27;20058;-83
2023/07/31 01:33:55;;;;;;;5.25;2.95;;;16.40;99.90;;;;;;6386188;27;20058;-84
2023/07/31 01:36:58;;;;;;;6.95;2.67;;;16.40;99.90;;;;;;6386785;27;20153;-84
2023/07/31 01:39:59;;;;;;;4.32;1.85;;;16.30;99.90;;;;;;6387566;27;20055;-84
2023/07/31 01:43:02;;;;;;;4.00;2.58;;;16.30;99.90;;;;;;6388034;27;20039;-83
2023/07/31 01:46:04;;;;;;;3.20;2.60;;;16.30;99.90;;;;;;6389565;27;20346;-83
2023/07/31 01:49:07;;;;;;;2.60;2.28;;;16.40;99.90;;;;;;6388616;27;20073;-84
2023/07/31 01:52:08;;;;;;;3.20;2.10;;;16.40;99.90;;;;;;6389267;27;20049;-84
2023/07/31 01:55:10;;;;;;;2.72;1.80;;;16.30;99.90;;;;;;6392791;27;20039;-82
2023/07/31 01:58:13;;;;;;;9.45;2.63;;;16.30;99.90;;;;;;6391261;27;20043;-83
2023/07/31 02:01:15;;;;;;;8.00;2.42;;;16.30;99.90;;;;;;6381505;27;20054;-83
2023/07/31 02:04:16;;;;;;;4.65;2.50;;;16.30;99.90;;;;;;6382770;27;20047;-83
2023/07/31 02:07:18;;;;;;;5.18;2.58;;;16.20;99.90;;;;;;6382293;27;20054;-82
2023/07/31 02:10:20;;;;;;;5.03;2.25;;;16.20;99.90;;;;;;6381584;27;20047;-83
2023/07/31 02:13:23;;;;;;;5.57;2.53;;;16.20;99.90;;;;;;6379880;27;20066;-82
2023/07/31 02:16:24;;;;;;;3.92;2.15;;;16.10;99.90;;;;;;6380795;27;20054;-83
2023/07/31 02:19:26;;;;;;;7.65;2.50;;;16.10;99.90;;;;;;6380274;27;20121;-83
2023/07/31 02:22:28;;;;;;;3.55;2.13;;;16.10;99.90;;;;;;6381037;27;20047;-83
2023/07/31 02:25:30;;;;;;;3.80;1.67;;;16.00;99.90;;;;;;6379973;27;20035;-83
2023/07/31 02:28:33;;;;;;;6.18;2.83;;;16.00;99.90;;;;;;6379055;27;20057;-83
2023/07/31 02:31:34;;;;;;;4.18;2.60;;;15.90;99.90;;;;;;6378872;27;20051;-84
2023/07/31 02:34:36;;;;;;;3.55;2.22;;;15.90;99.90;;;;;;6378349;27;20054;-82
2023/07/31 02:37:38;;;;;;;5.75;3.03;;;15.90;99.90;;;;;;6376964;27;20043;-83
2023/07/31 02:40:41;;;;;;;5.60;2.47;;;16.00;99.90;;;;;;6376384;27;20039;-83
2023/07/31 02:43:44;;;;;;;4.88;2.50;;;15.90;99.90;;;;;;6376573;27;20039;-84
2023/07/31 02:46:45;;;;;;;4.53;3.33;;;15.90;99.90;;;;;;6374893;27;20043;-84
2023/07/31 02:49:47;;;;;;;5.55;1.92;;;16.00;99.90;;;;;;6376929;27;20369;-81
2023/07/31 02:52:49;;;;;;;5.05;2.35;;;16.00;99.90;;;;;;6375857;27;20039;-83
2023/07/31 02:55:51;;;;;;;4.07;2.75;;;16.00;99.90;;;;;;6376497;27;20043;-82
2023/07/31 02:58:54;;;;;;;4.00;2.22;;;16.00;99.90;;;;;;6374837;27;20047;-84
2023/07/31 03:01:56;;;;;;;6.22;2.60;;;16.00;99.90;;;;;;6376831;28;20130;-83
2023/07/31 03:04:57;;;;;;;7.22;3.10;;;16.00;99.90;;;;;;6376343;27;20535;-84
2023/07/31 03:07:59;;;;;;;2.45;1.92;;;16.10;99.90;;;;;;6381085;27;20039;-83
2023/07/31 03:11:01;;;;;;;8.05;2.72;;;16.10;99.90;;;;;;6380641;27;20470;-84
2023/07/31 03:14:04;;;;;;;4.70;2.50;;;16.10;99.90;;;;;;6380763;27;20046;-84
2023/07/31 03:17:06;;;;;;;7.03;3.25;;;16.10;99.90;;;;;;6378851;27;20042;-83
2023/07/31 03:20:09;;;;;;;5.68;2.13;;;16.20;99.90;;;;;;6380593;27;20039;-83
2023/07/31 03:23:11;;;;;;;3.60;2.72;;;16.20;99.90;;;;;;6365978;27;20047;-83
2023/07/31 03:26:13;;;;;;;3.83;2.70;;;16.40;99.90;;;;;;6353948;28;20047;-83
2023/07/31 03:29:16;;;;;;;3.47;2.65;;;16.30;99.90;;;;;;6353514;28;20067;-84
2023/07/31 03:32:18;;;;;;;8.60;2.97;;;16.30;99.90;;;;;;6379694;27;20481;-83
2023/07/31 03:35:20;;;;;;;9.50;2.38;;;16.30;99.90;;;;;;6383694;27;20046;-83
2023/07/31 03:38:21;;;;;;;8.98;2.35;;;16.30;99.90;;;;;;6384927;27;20051;-83
2023/07/31 03:41:23;;;;;;;2.90;1.90;;;16.30;99.90;;;;;;6385368;27;20047;-84
2023/07/31 03:44:26;;;;;;;7.72;2.47;;;16.30;99.90;;;;;;6385145;27;20047;-82
2023/07/31 03:47:28;;;;;;;6.28;2.55;;;16.30;99.90;;;;;;6385228;27;20050;-83
2023/07/31 03:50:30;;;;;;;4.90;2.10;;;16.30;99.90;;;;;;6386230;27;20051;-82
2023/07/31 03:53:31;;;;;;;3.08;2.03;;;16.30;99.90;;;;;;6385521;27;20047;-83
2023/07/31 03:56:33;;;;;;;4.80;1.95;;;16.30;99.90;;;;;;6386070;27;20051;-82
2023/07/31 03:59:38;;;;;;;6.38;2.00;;;16.30;99.90;;;;;;6385743;27;20450;-83
2023/07/31 04:02:40;;;;;;;3.75;2.22;;;16.30;99.90;;;;;;6386079;27;20115;-83
2023/07/31 04:05:41;;;;;;;3.65;2.53;;;16.30;99.90;;;;;;6386247;27;20049;-83
2023/07/31 04:08:43;;;;;;;5.65;2.40;;;16.40;99.90;;;;;;6384944;27;20063;-83
2023/07/31 04:11:45;;;;;;;4.25;2.25;;;16.40;99.90;;;;;;6384688;27;20070;-83
2023/07/31 04:14:48;;;;;;;9.70;4.53;;;16.40;99.90;;;;;;6384629;27;20058;-82
2023/07/31 04:17:50;;;;;;;5.15;3.00;;;16.40;99.90;;;;;;6384831;27;20043;-82
2023/07/31 04:20:51;;;;;;;3.97;2.00;;;16.50;99.90;;;;;;6376837;27;20188;-82
2023/07/31 04:23:55;;;;;;;7.53;2.25;;;16.50;99.90;;;;;;6369798;27;20043;-83
2023/07/31 04:26:57;;;;;;;4.05;1.98;;;16.50;99.90;;;;;;6380682;27;20039;-81
2023/07/31 04:30:00;;;;;;;6.82;2.00;;;16.60;99.90;;;;;;6383600;27;20051;-82
2023/07/31 04:33:01;;;;;;;5.32;2.35;;;16.60;99.90;;;;;;6382582;27;20055;-83
2023/07/31 04:36:03;;;;;;;6.18;2.63;;;16.60;99.90;;;;;;6382475;27;20040;-83
2023/07/31 04:39:05;;;;;;;3.80;2.38;;;16.60;99.90;;;;;;6382331;27;20042;-82
2023/07/31 04:42:07;;;;;;;3.75;2.05;;;16.60;99.90;;;;;;6382499;27;20054;-83
2023/07/31 04:45:10;;;;;;;3.92;1.95;;;16.60;99.90;;;;;;6380787;27;20043;-84
2023/07/31 04:48:12;;;;;;;3.33;2.30;;;16.70;99.90;;;;;;6363429;27;20043;-83
2023/07/31 04:51:14;;;;;;;7.45;2.30;;;16.70;99.90;;;;;;6353869;28;20054;-82
2023/07/31 04:54:16;;;;;;;7.68;2.58;;;16.80;99.90;;;;;;6355394;28;20055;-83
2023/07/31 04:57:17;;;;;;;4.55;1.70;;;16.80;99.90;;;;;;6353966;28;20051;-83
2023/07/31 05:00:21;;;;;;;3.38;1.88;;;16.90;99.90;;;;;;6353761;28;20418;-82
2023/07/31 05:03:22;;;;;;;4.70;1.88;;;17.00;99.90;;;;;;6354115;28;20048;-83
2023/07/31 05:06:24;;;;;;;3.60;2.22;;;17.10;99.90;;;;;;6363727;27;20501;-82
2023/07/31 05:09:26;;;;;;;1.88;1.52;;;17.10;99.90;;;;;;6377547;27;20047;-82
2023/07/31 05:12:27;;;;;;;4.95;2.42;;;17.20;99.90;;;;;;6378327;27;20050;-83
2023/07/31 05:15:30;;;;;;;4.20;2.22;;;17.30;99.90;;;;;;6379029;27;20065;-84
2023/07/31 05:18:32;;;;;;;7.38;2.28;;;17.40;99.90;;;;;;6378909;27;20058;-84
2023/07/31 05:21:34;;;;;;;7.25;2.53;;;17.50;99.90;;;;;;6379270;27;20050;-82
2023/07/31 05:24:35;;;;;;;8.60;2.28;;;17.60;99.90;;;;;;6378769;27;20050;-81
2023/07/31 05:27:37;;;;;;;6.72;2.28;;;17.80;99.90;;;;;;6379858;27;20063;-81
2023/07/31 05:30:40;;;;;;;3.00;2.00;;;17.80;99.90;;;;;;6380450;27;20044;-81
2023/07/31 05:33:42;;;;;;;7.55;2.58;;;18.10;99.90;;;;;;6380718;27;20047;-83
2023/07/31 05:36:43;;;;;;;8.18;2.60;;;18.20;99.90;;;;;;6381338;27;20047;-82
2023/07/31 05:39:45;;;;;;;5.18;2.10;;;18.20;99.90;;;;;;6380443;27;20486;-83
2023/07/31 05:42:47;;;;;;;7.50;2.58;;;18.30;99.90;;;;;;6381754;27;20058;-81
2023/07/31 05:45:50;;;;;;;3.97;1.70;;;18.50;99.90;;;;;;6380635;27;20058;-82
2023/07/31 05:48:52;;;;;;;5.28;1.98;;;18.60;99.90;;;;;;6379460;27;20046;-83
2023/07/31 05:51:53;;;;;;;5.00;1.90;;;18.80;99.90;;;;;;6379459;27;20043;-82
2023/07/31 05:54:55;;;;;;;5.65;2.35;;;18.80;99.90;;;;;;6378942;27;20129;-83
2023/07/31 05:57:57;;;;;;;4.18;1.80;;;19.00;99.90;;;;;;6378963;27;20039;-81
2023/07/31 06:01:00;;;;;;;5.40;2.53;;;19.00;99.90;;;;;;6379216;27;20039;-82
2023/07/31 06:04:03;;;;;;;17.00;2.20;;;19.00;99.90;;;;;;6379970;27;20044;-82
2023/07/31 06:07:05;;;;;;;2.92;2.38;;;19.00;99.90;;;;;;6378955;27;20049;-82
2023/07/31 06:10:08;;;;;;;5.80;2.70;;;19.10;99.70;;;;;;6381018;27;20057;-80
2023/07/31 06:13:09;;;;;;;5.78;1.63;;;19.10;99.40;;;;;;6365058;27;20107;-80
2023/07/31 06:16:13;;;;;;;4.47;2.83;;;19.30;99.30;;;;;;6348145;28;20157;-81
2023/07/31 06:19:14;;;;;;;5.13;1.92;;;19.30;98.90;;;;;;6327415;28;20537;-80
2023/07/31 06:22:16;;;;;;;4.20;1.95;;;19.40;98.80;;;;;;6327780;28;20052;-81
2023/07/31 06:25:18;;;;;;;5.47;3.20;;;19.40;98.60;;;;;;6327427;28;20421;-80
2023/07/31 06:28:20;;;;;;;6.28;1.60;;;19.50;98.50;;;;;;6326831;28;20044;-81
2023/07/31 06:31:23;;;;;;;7.75;2.60;;;19.60;98.20;;;;;;6332905;28;20165;-80
2023/07/31 06:34:24;;;;;;;4.43;2.05;;;19.70;98.10;;;;;;6351900;28;20510;-81
2023/07/31 06:37:26;;;;;;;6.15;2.47;;;19.90;98.00;;;;;;6351247;28;20047;-81
2023/07/31 06:40:28;;;;;;;12.68;4.50;;;20.00;97.80;;;;;;6351829;28;20401;-80
2023/07/31 06:43:29;;;;;;;3.90;1.58;;;20.30;97.70;;;;;;6353985;28;20400;-82
2023/07/31 06:46:32;;;;;;;5.82;3.53;;;20.50;97.30;;;;;;6356440;28;20509;-81
2023/07/31 06:49:34;;;;;;;3.80;1.80;;;20.70;96.90;;;;;;6309872;28;20426;-80
2023/07/31 06:52:36;;;;;;;7.57;4.20;;;20.70;96.20;;;;;;6353053;27;20050;-80
2023/07/31 06:55:38;;;;;;;4.80;2.00;;;20.70;96.20;;;;;;6372746;27;20410;-78
2023/07/31 06:58:39;;;;;;;6.28;1.77;;;20.60;95.90;;;;;;6376095;27;20043;-80
2023/07/31 07:01:42;;;;;;;5.18;2.15;;;20.50;95.90;;;;;;6362517;28;20044;-79
2023/07/31 07:04:44;;;;;;;4.20;2.25;;;20.50;95.90;;;;;;6372140;28;20043;-80
2023/07/31 07:07:46;;;;;;;5.72;1.80;;;20.40;95.80;;;;;;6367208;28;20400;-80
2023/07/31 07:10:48;;;;;;;5.85;2.10;;;20.30;95.70;;;;;;6375196;28;20436;-80
2023/07/31 07:13:49;;;;;;;2.50;1.77;;;20.20;95.70;;;;;;6376115;28;20043;-80
2023/07/31 07:16:53;;;;;;;6.18;2.40;;;20.20;95.70;;;;;;6374928;28;20055;-80
2023/07/31 07:19:55;;;;;;;7.30;2.85;;;20.20;95.70;;;;;;6375383;28;20050;-81
2023/07/31 07:22:57;;;;;;;4.72;1.83;;;20.40;95.60;;;;;;6374358;28;20085;-79
2023/07/31 07:25:59;;;;;;;3.33;2.28;;;20.40;95.30;;;;;;6375675;28;20050;-80
2023/07/31 07:29:01;;;;;;;3.10;2.30;;;20.60;95.30;;;;;;6370644;28;20050;-79
2023/07/31 07:32:05;;;;;;;5.25;2.35;;;20.70;95.10;;;;;;6374388;28;20039;-79
2023/07/31 07:35:08;;;;;;;3.20;1.75;;;20.80;94.90;;;;;;6375252;28;20035;-79
2023/07/31 07:38:10;;;;;;;5.00;2.42;;;21.00;94.50;;;;;;6374209;28;20413;-80
2023/07/31 07:41:11;;;;;;;4.72;2.28;;;20.90;94.20;;;;;;6374868;27;20494;-82
2023/07/31 07:44:13;;;;;;;3.72;2.35;;;21.00;94.10;;;;;;6376419;27;20050;-79
2023/07/31 07:47:16;;;;;;;6.90;1.95;;;21.00;93.80;;;;;;6375005;27;20062;-82
2023/07/31 07:50:18;;;;;;;6.97;2.28;;;21.10;93.80;;;;;;6351398;28;20047;-82
2023/07/31 07:53:20;;;;;;;3.28;2.10;;;21.20;93.50;;;;;;6365831;27;20228;-79
2023/07/31 07:56:22;;;;;;;2.55;1.65;;;21.30;93.00;;;;;;6379325;27;20169;-80
2023/07/31 07:59:24;;;;;;;7.65;2.85;;;21.40;93.20;;;;;;6379385;27;20103;-80
2023/07/31 08:02:27;;;;;;;8.13;2.70;;;21.60;92.90;;;;;;6379691;27;20050;-80
2023/07/31 08:05:29;;;;;;;6.28;2.78;;;21.70;92.70;;;;;;6379774;27;20498;-81
2023/07/31 08:08:31;;;;;;;4.88;2.58;;;21.80;92.30;;;;;;6379245;27;20534;-81
2023/07/31 08:11:32;;;;;;;3.13;1.92;;;21.90;92.10;;;;;;6381267;27;20058;-80
2023/07/31 08:14:35;;;;;;;3.75;2.05;;;21.90;91.50;;;;;;6381634;27;20061;-80
2023/07/31 08:17:38;;;;;;;7.55;2.20;;;22.00;91.60;;;;;;6379488;27;20042;-77
2023/07/31 08:20:40;;;;;;;6.65;2.10;;;22.00;91.40;;;;;;6379465;27;20047;-79
2023/07/31 08:23:41;;;;;;;3.28;1.77;;;22.00;91.20;;;;;;6378741;27;20054;-80
2023/07/31 08:26:43;;;;;;;6.57;2.08;;;22.00;91.20;;;;;;6378079;27;20493;-79
2023/07/31 08:29:45;;;;;;;4.40;2.17;;;22.00;91.00;;;;;;6379519;27;20054;-80
2023/07/31 08:32:48;;;;;;;5.35;2.05;;;22.00;91.20;;;;;;6381840;27;20051;-83
2023/07/31 08:35:50;;;;;;;4.28;2.30;;;22.20;91.00;;;;;;6380521;27;20047;-80
2023/07/31 08:38:51;;;;;;;3.88;2.28;;;22.50;90.60;;;;;;6379059;27;20053;-81
2023/07/31 08:41:59;;;;;;;3.22;1.70;;;22.80;90.00;;;;;;6379644;27;20047;-79
2023/07/31 08:45:02;;;;;;;;;;;23.00;89.90;;;;;;6378445;27;20051;-80
2023/07/31 08:48:06;;;;;;;7.03;2.85;;;23.60;88.90;;;;;;6377027;27;20056;-80
2023/07/31 08:51:08;;;;;;;2.75;2.08;;;23.80;87.20;;;;;;6381151;27;20077;-79
2023/07/31 08:54:09;;;;;;;7.95;2.88;;;24.10;87.30;;;;;;6381776;27;20066;-77
2023/07/31 08:57:13;;;;;;;9.38;1.98;;;24.40;85.10;;;;;;6374722;27;20043;-82
2023/07/31 09:00:15;;;;;;;5.13;1.65;;;24.20;82.80;;;;;;6374397;27;20069;-81
2023/07/31 09:03:19;;;;;;;4.93;1.75;;;24.00;83.30;;;;;;6372660;27;20565;-80
2023/07/31 09:06:23;;;;;;;5.93;2.90;;;24.30;83.10;;;;;;6375458;27;20057;-79
2023/07/31 09:09:25;;;;;;;4.43;1.80;;;25.20;82.50;;;;;;6371497;27;20043;-79
2023/07/31 09:12:27;;;;;;;5.47;2.75;;;25.80;80.30;;;;;;6374218;27;20043;-79
2023/07/31 09:15:30;;;;;;;4.82;2.20;;;26.10;78.00;;;;;;6378500;27;20039;-79
2023/07/31 09:18:40;;;;;;;5.07;2.28;;;26.10;76.40;;;;;;6387665;27;20074;-79
2023/07/31 09:21:49;;;;;;;7.40;2.22;;;26.00;76.30;;;;;;6361266;28;20524;-79
2023/07/31 09:24:55;;;;;;;3.22;2.10;;;26.10;74.30;;;;;;6361077;28;20058;-78
2023/07/31 09:28:00;;;;;;;7.82;1.88;;;25.90;74.80;;;;;;6369835;27;20072;-79
2023/07/31 09:31:02;;;;;;;6.32;2.40;;;26.00;73.00;;;;;;6351234;28;20049;-79
2023/07/31 09:34:10;;;;;;;5.75;2.17;;;25.70;72.60;;;;;;6365338;27;20403;-80
2023/07/31 09:37:12;;;;;;;3.70;1.95;;;25.70;73.60;;;;;;6373741;27;20096;-80
2023/07/31 09:40:27;;;;;;;6.82;2.58;;;25.70;73.30;;;;;;6373079;27;20145;-80
2023/07/31 09:43:29;;;;;;;6.90;2.45;;;25.80;72.50;;;;;;6373015;27;20043;-80
2023/07/31 09:46:31;;;;;;;5.07;2.05;;;26.00;72.80;;;;;;6373600;27;20050;-79
2023/07/31 09:49:35;;;;;;;5.47;2.65;;;26.20;71.70;;;;;;6373636;27;20073;-80
2023/07/31 09:52:39;;;;;;;4.15;2.13;;;26.40;71.60;;;;;;6373133;27;20043;-79
2023/07/31 09:55:42;;;;;;;6.40;2.10;;;26.30;70.50;;;;;;6374039;27;20050;-79
2023/07/31 09:58:44;;;;;;;4.65;2.67;;;26.20;70.80;;;;;;6374111;27;20051;-79
2023/07/31 10:01:47;;;;;;;3.97;2.00;;;26.20;70.30;;;;;;6374808;27;20165;-79
2023/07/31 10:04:51;;;;;;;5.40;2.10;;;26.00;70.60;;;;;;6372751;27;20050;-80
2023/07/31 10:07:56;;;;;;;5.75;2.00;;;26.00;71.50;;;;;;6373085;27;20061;-79
2023/07/31 10:11:00;;;;;;;5.35;2.10;;;25.70;70.10;;;;;;6373451;27;20053;-79
2023/07/31 10:14:03;;;;;;;5.90;1.60;;;25.40;70.50;;;;;;6373417;27;20533;-79
2023/07/31 10:17:07;;;;;;;4.25;2.50;;;25.40;70.50;;;;;;6372882;27;20046;-79
2023/07/31 10:20:12;;;;;;;3.92;1.90;;;25.30;71.10;;;;;;6372183;27;20085;-79
2023/07/31 10:23:14;;;;;;;6.55;2.13;;;25.50;70.70;;;;;;6372529;27;20107;-78
2023/07/31 10:26:18;;;;;;;6.30;2.97;;;25.80;70.50;;;;;;6372024;27;20050;-79
2023/07/31 10:29:20;;;;;;;5.57;2.63;;;25.80;69.10;;;;;;6371367;27;20071;-79
2023/07/31 10:32:23;;;;;;;13.80;2.42;;;25.60;69.20;;;;;;6372558;27;20043;-79
2023/07/31 10:35:28;;;;;;;5.63;2.90;;;25.40;69.80;;;;;;6372019;27;20487;-80
2023/07/31 10:38:30;;;;;;;8.40;2.13;;;25.20;70.60;;;;;;6371900;27;20051;-79
2023/07/31 10:41:32;;;;;;;5.25;2.60;;;25.30;71.00;;;;;;6371631;27;20047;-79
2023/07/31 10:44:35;;;;;;;3.28;2.10;;;25.70;71.40;;;;;;6371396;27;20085;-79
2023/07/31 10:47:44;;;;;;;3.38;1.73;;;26.00;69.30;;;;;;6370933;27;20035;-79
2023/07/31 10:50:50;;;;;;;5.75;2.30;;;25.70;69.70;;;;;;6371717;27;20814;-79
2023/07/31 10:54:12;;;;;;;4.93;2.20;;;25.50;69.80;;;;;;6372444;27;20062;-80
2023/07/31 10:57:25;;;;;;;6.47;2.53;;;25.40;70.30;;;;;;6370848;27;20418;-79
2023/07/31 11:00:29;;;;;;;4.10;2.05;;;25.30;69.80;;;;;;6371851;27;20100;-80
2023/07/31 11:03:44;;;;;;;7.50;2.65;;;25.30;70.00;;;;;;6371489;27;20072;-79
2023/07/31 11:06:57;;;;;;;4.45;2.17;;;25.60;70.10;;;;;;6371786;27;20413;-80
2023/07/31 11:09:58;;;;;;;5.78;2.15;;;25.90;69.40;;;;;;6370355;28;20061;-79
2023/07/31 11:13:00;;;;;;;5.18;2.33;;;26.00;69.20;;;;;;6371531;28;20151;-78
2023/07/31 11:16:02;;;;;;;5.53;2.35;;;26.30;69.10;;;;;;6366963;28;20137;-79
2023/07/31 11:19:09;;;;;;;5.72;2.22;;;26.60;68.70;;;;;;6382287;28;20084;-78
2023/07/31 11:22:12;;;;;;;3.95;1.95;;;26.70;67.00;;;;;;6370118;28;20050;-79
2023/07/31 11:25:15;;;;;;;4.63;2.35;;;26.50;66.80;;;;;;6373592;28;20049;-78
2023/07/31 11:28:18;;;;;;;5.32;2.30;;;26.70;66.70;;;;;;6376607;27;20047;-77
2023/07/31 11:31:20;;;;;;;4.30;2.13;;;26.70;66.90;;;;;;6380462;27;20051;-78
2023/07/31 11:34:22;;;;;;;6.18;2.58;;;26.40;66.60;;;;;;6379404;27;20054;-81
2023/07/31 11:37:40;;;;;;;4.00;1.60;;;26.30;66.80;;;;;;6380022;27;20122;-77
2023/07/31 11:40:45;;;;;;;4.40;2.30;;;26.20;66.90;;;;;;6377525;27;20043;-78
2023/07/31 11:43:48;;;;;;;8.93;2.78;;;26.10;67.20;;;;;;6374333;27;20047;-77
2023/07/31 11:46:51;;;;;;;5.53;2.45;;;26.10;67.90;;;;;;6375294;27;20043;-80
2023/07/31 11:49:52;;;;;;;3.63;2.20;;;26.30;67.20;;;;;;6378768;27;20056;-78
2023/07/31 11:53:00;;;;;;;5.13;2.25;;;26.30;67.30;;;;;;6378543;27;20046;-79
2023/07/31 11:56:04;;;;;;;5.90;1.98;;;26.30;67.60;;;;;;6378856;27;20047;-79
2023/07/31 11:59:08;;;;;;;5.40;2.10;;;26.20;67.50;;;;;;6377700;27;20046;-79
2023/07/31 12:02:10;;;;;;;3.03;2.38;;;26.20;68.00;;;;;;6379225;27;20054;-79
2023/07/31 12:05:13;;;;;;;3.22;1.65;;;26.40;67.90;;;;;;6377264;27;20047;-79
2023/07/31 12:08:16;;;;;;;4.75;2.83;;;26.50;67.70;;;;;;6377367;27;20070;-79
2023/07/31 12:11:18;;;;;;;5.00;2.53;;;26.90;67.30;;;;;;6377763;27;20050;-77
2023/07/31 12:14:25;;;;;;;4.45;2.13;;;27.20;66.00;;;;;;6371572;27;20512;-78
2023/07/31 12:17:27;;;;;;;7.53;2.63;;;27.60;65.90;;;;;;6378665;27;20455;-80
2023/07/31 12:20:31;;;;;;;7.38;2.30;;;27.90;64.50;;;;;;6378481;27;20050;-80
2023/07/31 12:23:35;;;;;;;6.53;3.58;;;27.90;64.00;;;;;;6377442;27;20399;-78
2023/07/31 12:26:37;;;;;;;4.28;2.03;;;28.00;64.20;;;;;;6379046;27;20058;-79
2023/07/31 12:29:40;;;;;;;4.10;1.80;;;28.10;64.20;;;;;;6377551;27;20035;-83
2023/07/31 12:32:42;;;;;;;5.78;2.20;;;28.10;63.80;;;;;;6380351;27;20069;-79
2023/07/31 12:35:45;;;;;;;4.97;2.45;;;27.80;63.40;;;;;;6375863;27;20754;-79
2023/07/31 12:38:49;;;;;;;6.20;2.78;;;28.00;63.80;;;;;;6373658;27;20050;-79
2023/07/31 12:41:50;;;;;;;4.82;2.85;;;28.10;63.50;;;;;;6368365;27;20062;-80
2023/07/31 12:44:52;;;;;;;4.85;2.10;;;28.30;63.10;;;;;;6375710;27;20532;-80
2023/07/31 12:47:54;;;;;;;9.27;3.67;;;27.90;62.60;;;;;;6372225;27;20047;-80
2023/07/31 12:50:55;;;;;;;6.95;2.80;;;27.50;63.80;;;;;;6377076;27;20425;-79
2023/07/31 12:53:58;;;;;;;3.15;2.30;;;27.10;63.90;;;;;;6371577;27;20047;-79
2023/07/31 12:57:00;;;;;;;4.25;2.17;;;26.70;64.40;;;;;;6377155;27;20054;-79
2023/07/31 13:00:02;;;;;;;3.53;2.35;;;26.50;65.20;;;;;;6369795;27;20039;-79
2023/07/31 13:03:04;;;;;;;6.22;1.75;;;26.40;66.00;;;;;;6367120;27;20512;-78
2023/07/31 13:06:06;;;;;;;6.65;3.42;;;26.40;66.10;;;;;;6374915;27;20050;-78
2023/07/31 13:09:10;;;;;;;4.07;2.42;;;26.30;66.60;;;;;;6367715;27;20036;-78
2023/07/31 13:12:12;;;;;;;7.85;2.40;;;26.20;66.60;;;;;;6369517;27;20126;-79
2023/07/31 13:15:14;;;;;;;4.00;2.63;;;26.20;67.20;;;;;;6374021;27;20498;-77
2023/07/31 13:18:16;;;;;;;3.35;2.00;;;26.30;67.60;;;;;;6374817;27;20048;-78
2023/07/31 13:21:18;;;;;;;3.65;2.08;;;26.30;67.60;;;;;;6372831;27;20681;-78
2023/07/31 13:24:21;;;;;;;5.10;2.28;;;26.30;68.10;;;;;;6368335;27;20047;-78
2023/07/31 13:27:24;;;;;;;5.95;1.92;;;26.10;68.00;;;;;;6372537;27;20043;-78
2023/07/31 13:30:26;;;;;;;2.85;1.90;;;26.00;68.30;;;;;;6374459;27;20054;-79
2023/07/31 13:33:27;;;;;;;5.32;2.10;;;26.00;67.80;;;;;;6366442;27;20201;-79
2023/07/31 13:36:29;;;;;;;4.03;2.08;;;25.80;68.10;;;;;;6375265;27;20501;-80
2023/07/31 13:39:32;;;;;;;6.50;2.67;;;25.70;68.60;;;;;;6368457;27;20047;-78
2023/07/31 13:42:34;;;;;;;5.95;2.33;;;25.70;68.60;;;;;;6370639;27;20052;-80
2023/07/31 13:45:36;;;;;;;6.85;3.08;;;25.70;68.60;;;;;;6368497;27;20039;-79
2023/07/31 13:48:37;;;;;;;7.32;2.08;;;25.50;68.80;;;;;;6374200;27;20035;-78
2023/07/31 13:51:40;;;;;;;3.58;2.28;;;25.60;69.00;;;;;;6371721;27;20042;-77
2023/07/31 13:54:43;;;;;;;4.57;1.95;;;25.70;69.20;;;;;;6367056;27;20058;-79
2023/07/31 13:57:45;;;;;;;2.83;1.88;;;25.80;69.20;;;;;;6367534;27;20062;-79
2023/07/31 14:00:46;;;;;;;5.63;2.20;;;25.70;68.70;;;;;;6368547;27;20046;-78
2023/07/31 14:03:48;;;;;;;4.95;2.17;;;25.60;69.20;;;;;;6367003;27;20070;-78
2023/07/31 14:06:50;;;;;;;6.85;3.35;;;25.80;69.50;;;;;;6372650;27;20049;-78
2023/07/31 14:09:53;;;;;;;4.25;2.42;;;25.80;69.80;;;;;;6375494;27;20039;-79
2023/07/31 14:12:55;;;;;;;6.45;3.00;;;25.70;69.80;;;;;;6373010;27;20410;-79
2023/07/31 14:15:57;;;;;;;5.15;2.28;;;25.40;69.60;;;;;;6371890;27;20494;-80
2023/07/31 14:18:59;;;;;;;5.55;2.13;;;25.40;70.00;;;;;;6375256;27;20062;-79
2023/07/31 14:22:01;;;;;;;5.35;3.10;;;25.40;70.30;;;;;;6371017;27;20047;-80
2023/07/31 14:25:04;;;;;;;8.30;2.67;;;25.20;70.40;;;;;;6370146;27;20046;-79
2023/07/31 14:28:06;;;;;;;5.65;2.45;;;25.10;70.40;;;;;;6368705;27;20066;-79
2023/07/31 14:31:09;;;;;;;4.88;2.40;;;25.00;70.80;;;;;;6373314;27;20076;-79
2023/07/31 14:34:10;;;;;;;4.45;2.75;;;24.90;71.00;;;;;;6368735;27;20476;-79
2023/07/31 14:37:12;;;;;;;3.72;2.15;;;24.80;71.40;;;;;;6373379;27;20065;-79
2023/07/31 14:40:15;;;;;;;5.82;2.58;;;24.80;71.80;;;;;;6374306;27;20039;-78
2023/07/31 14:43:17;;;;;;;4.03;2.42;;;24.90;72.10;;;;;;6370840;27;20039;-79
2023/07/31 14:46:19;;;;;;;5.97;2.90;;;25.00;72.00;;;;;;6370655;27;20043;-79
2023/07/31 14:49:21;;;;;;;5.10;2.13;;;25.10;72.00;;;;;;6363496;27;20540;-79
2023/07/31 14:52:22;;;;;;;6.60;2.67;;;25.30;72.20;;;;;;6369123;27;20511;-79
2023/07/31 14:55:25;;;;;;;8.85;3.53;;;25.60;72.00;;;;;;6374337;27;20050;-80
2023/07/31 14:58:27;;;;;;;3.40;1.95;;;25.70;71.20;;;;;;6366230;27;20051;-79
2023/07/31 15:01:29;;;;;;;5.80;2.47;;;25.60;71.30;;;;;;6368448;27;20058;-79
2023/07/31 15:04:30;;;;;;;5.10;3.00;;;25.60;71.30;;;;;;6375650;27;20050;-79
2023/07/31 15:07:33;;;;;;;4.10;2.20;;;25.70;71.20;;;;;;6369483;28;20228;-79
2023/07/31 15:10:36;;;;;;;4.25;2.10;;;25.80;71.30;;;;;;6370595;28;20036;-79
2023/07/31 15:13:38;;;;;;;3.83;2.20;;;26.00;71.30;;;;;;6376114;28;20043;-78
2023/07/31 15:16:39;;;;;;;6.90;2.72;;;26.30;71.30;;;;;;6369384;28;20055;-78
2023/07/31 15:19:41;;;;;;;7.63;2.33;;;26.40;71.10;;;;;;6363554;28;20111;-79
2023/07/31 15:22:43;;;;;;;4.10;1.77;;;26.40;70.90;;;;;;6372463;28;20047;-80
2023/07/31 15:25:46;;;;;;;4.75;2.80;;;26.40;70.80;;;;;;6372725;28;20039;-79
2023/07/31 15:28:56;;;;;;;8.40;2.92;;;26.50;70.60;;;;;;6373848;28;20128;-79
2023/07/31 15:31:58;;;;;;;5.40;2.13;;;26.50;70.70;;;;;;6371347;28;20046;-77
2023/07/31 15:34:59;;;;;;;3.47;2.22;;;26.30;70.60;;;;;;6367563;27;20069;-78
2023/07/31 15:38:01;;;;;;;5.30;2.10;;;26.30;71.10;;;;;;6368725;28;20051;-79
2023/07/31 15:41:04;;;;;;;5.35;2.00;;;26.20;71.00;;;;;;6370236;28;20043;-78
2023/07/31 15:44:06;;;;;;;2.88;2.42;;;26.00;71.00;;;;;;6371148;28;20046;-78
2023/07/31 15:47:08;;;;;;;5.65;2.33;;;25.80;71.50;;;;;;6355440;28;20040;-78
2023/07/31 15:50:10;;;;;;;4.90;1.88;;;25.70;71.80;;;;;;6368527;28;20035;-80
2023/07/31 15:53:12;;;;;;;5.13;2.20;;;25.60;72.30;;;;;;6365558;28;20077;-76